createdAt,value
2019-03-11T00:04:00.797Z,3.50
2019-03-11T00:06:28.441Z,3.50
2019-03-11T00:08:56.074Z,3.60
2019-03-11T00:11:23.709Z,3.60
2019-03-11T00:13:51.344Z,3.50
2019-03-11T00:18:46.358Z,2.70
2019-03-11T00:21:14.053Z,2.60
2019-03-11T00:23:41.703Z,2.60
2019-03-11T00:26:09.349Z,2.60
2019-03-11T00:28:36.982Z,2.60
2019-03-11T00:31:04.638Z,2.50
2019-03-11T00:33:32.246Z,2.50
2019-03-11T00:35:59.889Z,2.50
2019-03-11T00:38:27.513Z,2.50
2019-03-11T00:40:55.175Z,2.50
2019-03-11T00:43:23.750Z,2.50
2019-03-11T00:45:51.385Z,2.50
2019-03-11T00:48:19.022Z,2.40
2019-03-11T00:50:46.654Z,2.40
2019-03-11T00:53:14.365Z,2.40
2019-03-11T00:55:42.003Z,2.40
2019-03-11T00:58:09.644Z,2.40
2019-03-11T01:00:37.342Z,2.40
2019-03-11T01:03:04.986Z,2.40
2019-03-11T01:05:32.610Z,2.40
2019-03-11T01:08:00.260Z,2.40
2019-03-11T01:10:27.958Z,2.30
2019-03-11T01:12:55.611Z,2.30
2019-03-11T01:15:23.237Z,2.30
2019-03-11T01:17:50.873Z,2.30
2019-03-11T01:20:18.499Z,2.40
2019-03-11T01:22:46.145Z,2.40
2019-03-11T01:25:14.238Z,2.50
2019-03-11T01:27:41.882Z,2.50
2019-03-11T01:30:16.270Z,2.40
2019-03-11T01:32:49.679Z,2.50
2019-03-11T01:35:17.306Z,2.40
2019-03-11T01:37:44.963Z,2.40
2019-03-11T01:40:16.219Z,2.40
2019-03-11T01:42:44.855Z,2.40
2019-03-11T01:45:14.035Z,2.30
2019-03-11T01:47:41.670Z,2.30
2019-03-11T01:50:09.979Z,2.20
2019-03-11T01:57:34.354Z,2.00
2019-03-11T02:00:02.446Z,1.90
2019-03-11T02:02:31.043Z,1.90
2019-03-11T02:04:58.683Z,1.80
2019-03-11T02:07:26.310Z,1.70
2019-03-11T02:09:53.978Z,1.70
2019-03-11T02:12:21.598Z,1.60
2019-03-11T02:14:49.241Z,1.60
2019-03-11T02:17:16.878Z,1.50
2019-03-11T02:19:44.522Z,1.50
2019-03-11T02:22:17.162Z,1.60
2019-03-11T02:24:44.818Z,1.60
2019-03-11T02:27:12.452Z,1.70
2019-03-11T02:29:40.162Z,1.80
2019-03-11T02:32:07.791Z,1.90
2019-03-11T02:34:35.431Z,2.00
2019-03-11T02:37:03.058Z,1.90
2019-03-11T02:39:30.702Z,1.90
2019-03-11T02:41:58.336Z,1.90
2019-03-11T02:44:25.974Z,2.00
2019-03-11T02:46:53.612Z,2.10
2019-03-11T02:49:21.251Z,2.10
2019-03-11T02:51:48.950Z,2.30
2019-03-11T02:54:17.498Z,2.30
2019-03-11T02:56:45.495Z,2.40
2019-03-11T02:59:13.145Z,2.50
2019-03-11T03:01:54.241Z,2.50
2019-03-11T03:04:26.228Z,2.50
2019-03-11T03:06:53.924Z,2.60
2019-03-11T03:09:21.596Z,2.60
2019-03-11T03:11:49.278Z,2.70
2019-03-11T03:14:28.164Z,2.70
2019-03-11T03:16:55.792Z,2.70
2019-03-11T03:19:23.425Z,2.70
2019-03-11T03:21:51.055Z,2.70
2019-03-11T03:24:18.682Z,2.80
2019-03-11T03:26:46.340Z,2.90
2019-03-11T03:29:13.969Z,3.00
2019-03-11T03:31:41.629Z,3.20
2019-03-11T03:34:09.368Z,3.20
2019-03-11T03:36:37.051Z,3.10
2019-03-11T03:39:05.563Z,3.10
2019-03-11T03:41:33.216Z,3.20
2019-03-11T03:44:00.943Z,3.20
2019-03-11T03:46:28.591Z,3.30
2019-03-11T03:48:56.227Z,3.40
2019-03-11T03:51:23.887Z,3.30
2019-03-11T03:53:51.585Z,3.30
2019-03-11T03:56:19.266Z,3.30
2019-03-11T03:58:46.966Z,3.30
2019-03-11T04:01:14.650Z,3.30
2019-03-11T04:03:42.281Z,3.30
2019-03-11T04:06:09.920Z,3.40
2019-03-11T04:08:37.547Z,3.40
2019-03-11T04:11:05.255Z,3.50
2019-03-11T04:13:32.895Z,3.60
2019-03-11T04:16:00.515Z,3.50
2019-03-11T04:18:29.700Z,3.60
2019-03-11T04:20:57.327Z,3.50
2019-03-11T04:23:24.962Z,3.70
2019-03-11T04:25:52.623Z,3.80
2019-03-11T04:28:20.312Z,3.80
2019-03-11T04:30:47.940Z,3.80
2019-03-11T04:33:15.587Z,3.90
2019-03-11T04:35:43.215Z,3.80
2019-03-11T04:38:10.859Z,3.80
2019-03-11T04:40:38.483Z,3.80
2019-03-11T04:43:06.122Z,3.80
2019-03-11T04:45:33.760Z,3.80
2019-03-11T04:48:01.398Z,3.80
2019-03-11T04:50:29.026Z,3.90
2019-03-11T04:52:56.675Z,3.70
2019-03-11T04:55:24.313Z,3.40
2019-03-11T04:57:55.258Z,3.20
2019-03-11T05:00:24.426Z,3.10
2019-03-11T05:02:52.122Z,3.00
2019-03-11T05:05:19.750Z,2.90
2019-03-11T05:07:47.687Z,2.80
2019-03-11T05:10:16.513Z,2.70
2019-03-11T05:12:44.319Z,2.70
2019-03-11T05:15:12.837Z,2.80
2019-03-11T05:17:40.462Z,2.90
2019-03-11T05:20:12.838Z,3.00
2019-03-11T05:22:42.412Z,3.10
2019-03-11T05:25:10.828Z,3.20
2019-03-11T05:27:38.521Z,3.10
2019-03-11T05:30:16.510Z,3.30
2019-03-11T05:32:44.134Z,3.40
2019-03-11T05:35:11.848Z,3.50
2019-03-11T05:37:39.475Z,3.60
2019-03-11T05:40:11.296Z,3.70
2019-03-11T05:42:39.891Z,3.70
2019-03-11T05:45:08.702Z,3.80
2019-03-11T05:47:36.327Z,3.80
2019-03-11T05:50:05.539Z,3.80
2019-03-11T05:52:36.723Z,3.80
2019-03-11T05:55:04.534Z,3.90
2019-03-11T05:57:32.163Z,4.00
2019-03-11T05:59:59.814Z,3.90
2019-03-11T06:02:27.438Z,3.80
2019-03-11T06:04:55.086Z,3.50
2019-03-11T06:07:22.719Z,3.30
2019-03-11T06:09:50.362Z,3.10
2019-03-11T06:12:18.007Z,3.00
2019-03-11T06:14:45.645Z,2.90
2019-03-11T06:17:13.278Z,2.80
2019-03-11T06:19:40.898Z,2.70
2019-03-11T06:22:10.183Z,2.70
2019-03-11T06:24:37.811Z,2.80
2019-03-11T06:27:05.451Z,2.70
2019-03-11T06:29:33.098Z,2.60
2019-03-11T06:32:00.733Z,2.50
2019-03-11T06:34:28.386Z,2.40
2019-03-11T06:36:56.050Z,2.30
2019-03-11T06:39:23.674Z,2.20
2019-03-11T06:41:51.314Z,2.10
2019-03-11T06:44:18.943Z,2.10
2019-03-11T06:46:46.678Z,2.00
2019-03-11T06:49:14.307Z,1.90
2019-03-11T06:51:41.954Z,1.70
2019-03-11T06:54:09.583Z,1.80
2019-03-11T06:56:37.222Z,1.80
2019-03-11T06:59:04.853Z,1.90
2019-03-11T07:01:32.491Z,1.70
2019-03-11T07:04:00.122Z,1.60
2019-03-11T07:06:27.770Z,1.60
2019-03-11T07:08:55.400Z,1.70
2019-03-11T07:11:23.047Z,1.70
2019-03-11T07:13:50.676Z,1.60
2019-03-11T07:16:18.318Z,1.70
2019-03-11T07:18:45.967Z,1.80
2019-03-11T07:21:13.618Z,1.80
2019-03-11T07:23:43.223Z,1.80
2019-03-11T07:26:10.851Z,1.80
2019-03-11T07:28:38.490Z,1.70
2019-03-11T07:31:06.118Z,1.60
2019-03-11T07:33:33.756Z,1.50
2019-03-11T07:36:01.387Z,1.40
2019-03-11T07:38:29.051Z,1.60
2019-03-11T07:40:56.787Z,1.70
2019-03-11T07:43:24.430Z,1.60
2019-03-11T07:45:52.059Z,1.70
2019-03-11T07:48:19.699Z,1.80
2019-03-11T07:50:47.322Z,1.80
2019-03-11T07:53:14.967Z,2.00
2019-03-11T07:55:42.595Z,2.20
2019-03-11T07:58:10.235Z,2.10
2019-03-11T08:00:37.866Z,2.20
2019-03-11T08:03:05.513Z,2.20
2019-03-11T08:05:33.145Z,2.20
2019-03-11T08:08:00.879Z,2.30
2019-03-11T08:10:28.582Z,2.40
2019-03-11T08:12:57.181Z,2.20
2019-03-11T08:15:24.841Z,2.10
2019-03-11T08:17:52.567Z,2.00
2019-03-11T08:20:20.339Z,2.10
2019-03-11T08:22:47.973Z,2.10
2019-03-11T08:25:16.367Z,2.20
2019-03-11T08:27:44.085Z,2.40
2019-03-11T08:30:18.218Z,2.50
2019-03-11T08:32:47.918Z,2.70
2019-03-11T08:35:15.551Z,2.80
2019-03-11T08:37:43.179Z,2.80
2019-03-11T08:42:48.431Z,3.10
2019-03-11T08:45:19.418Z,3.40
2019-03-11T08:47:47.046Z,3.50
2019-03-11T08:50:16.226Z,3.60
2019-03-11T08:52:43.854Z,3.90
2019-03-11T08:55:11.566Z,4.70
2019-03-11T08:57:41.270Z,4.10
2019-03-11T09:00:12.382Z,4.30
2019-03-11T09:02:40.015Z,4.60
2019-03-11T09:05:09.022Z,4.40
2019-03-11T09:07:36.658Z,4.00
2019-03-11T09:10:05.855Z,3.80
2019-03-11T09:12:33.475Z,4.10
2019-03-11T09:15:01.194Z,4.30
2019-03-11T09:17:28.835Z,4.50
2019-03-11T09:19:56.470Z,4.40
2019-03-11T09:22:25.090Z,4.60
2019-03-11T09:24:52.730Z,4.50
2019-03-11T09:27:20.354Z,4.90
2019-03-11T09:29:48.018Z,5.00
2019-03-11T09:32:19.746Z,4.90
2019-03-11T09:34:47.447Z,4.90
2019-03-11T09:37:15.086Z,4.50
2019-03-11T09:39:42.731Z,4.50
2019-03-11T09:42:10.374Z,4.60
2019-03-11T09:44:38.014Z,4.70
2019-03-11T09:47:05.641Z,4.90
2019-03-11T09:49:33.294Z,5.10
2019-03-11T09:52:00.922Z,5.20
2019-03-11T09:54:28.582Z,5.20
2019-03-11T09:56:56.210Z,5.00
2019-03-11T09:59:23.860Z,4.80
2019-03-11T10:01:51.494Z,4.70
2019-03-11T10:04:19.118Z,5.20
2019-03-11T10:06:46.769Z,5.30
2019-03-11T10:09:14.397Z,5.80
2019-03-11T10:11:42.046Z,6.20
2019-03-11T10:14:09.679Z,6.00
2019-03-11T10:16:37.328Z,5.90
2019-03-11T10:19:04.960Z,5.60
2019-03-11T10:21:32.602Z,5.90
2019-03-11T10:24:00.236Z,6.10
2019-03-11T10:26:27.887Z,6.10
2019-03-11T10:28:55.532Z,6.70
2019-03-11T10:31:23.182Z,7.10
2019-03-11T10:33:58.725Z,7.50
2019-03-11T10:36:26.370Z,7.70
2019-03-11T10:38:54.008Z,7.50
2019-03-11T10:41:21.650Z,7.50
2019-03-11T10:43:49.287Z,7.40
2019-03-11T10:46:16.930Z,7.60
2019-03-11T10:48:44.554Z,8.70
2019-03-11T10:51:12.202Z,7.60
2019-03-11T10:53:39.844Z,6.50
2019-03-11T10:56:07.488Z,5.70
2019-03-11T10:58:35.126Z,5.20
2019-03-11T11:01:02.738Z,4.70
2019-03-11T11:03:32.355Z,4.30
2019-03-11T11:05:59.982Z,4.40
2019-03-11T11:08:27.622Z,4.80
2019-03-11T11:10:55.247Z,5.10
2019-03-11T11:13:24.826Z,5.20
2019-03-11T11:15:52.437Z,5.40
2019-03-11T11:18:20.083Z,6.20
2019-03-11T11:20:47.723Z,6.90
2019-03-11T11:23:15.371Z,6.70
2019-03-11T11:25:42.998Z,6.60
2019-03-11T11:28:10.659Z,7.30
2019-03-11T11:30:38.341Z,7.30
2019-03-11T11:35:33.350Z,6.00
2019-03-11T11:38:01.000Z,5.30
2019-03-11T11:40:29.094Z,5.20
2019-03-11T11:42:56.839Z,6.10
2019-03-11T11:47:51.905Z,7.90
2019-03-11T11:50:21.032Z,8.40
2019-03-11T11:52:49.698Z,8.10
2019-03-11T11:55:17.806Z,7.70
2019-03-11T11:57:45.501Z,7.60
2019-03-11T12:00:15.767Z,7.50
2019-03-11T12:02:44.399Z,7.10
2019-03-11T12:05:13.114Z,7.30
2019-03-11T12:07:41.998Z,7.00
2019-03-11T12:10:11.354Z,6.30
2019-03-11T12:12:39.931Z,6.50
2019-03-11T12:15:08.754Z,6.90
2019-03-11T12:17:38.507Z,6.70
2019-03-11T12:20:07.696Z,6.60
2019-03-11T12:22:35.327Z,6.20
2019-03-11T12:25:03.332Z,6.70
2019-03-11T12:27:30.951Z,7.90
2019-03-11T12:29:58.594Z,7.70
2019-03-11T12:32:26.226Z,7.00
2019-03-11T12:34:53.867Z,6.70
2019-03-11T12:37:21.503Z,6.40
2019-03-11T12:39:49.134Z,6.20
2019-03-11T12:42:16.759Z,6.00
2019-03-11T12:44:44.405Z,5.80
2019-03-11T12:47:12.030Z,7.20
2019-03-11T12:49:39.667Z,8.40
2019-03-11T12:52:18.291Z,8.00
2019-03-11T12:54:45.927Z,7.50
2019-03-11T12:57:13.562Z,7.80
2019-03-11T12:59:41.209Z,7.20
2019-03-11T13:02:08.844Z,6.60
2019-03-11T13:04:36.466Z,6.70
2019-03-11T13:07:04.101Z,6.40
2019-03-11T13:09:31.742Z,6.10
2019-03-11T13:11:59.462Z,6.30
2019-03-11T13:14:27.090Z,7.00
2019-03-11T13:16:54.730Z,7.40
2019-03-11T13:19:22.359Z,7.40
2019-03-11T13:21:50.022Z,7.60
2019-03-11T13:24:17.645Z,7.70
2019-03-11T13:26:45.290Z,7.50
2019-03-11T13:29:12.918Z,7.10
2019-03-11T13:31:40.567Z,6.90
2019-03-11T13:34:14.362Z,6.10
2019-03-11T13:36:42.019Z,6.40
2019-03-11T13:39:10.204Z,6.20
2019-03-11T13:41:37.847Z,6.10
2019-03-11T13:44:05.483Z,5.70
2019-03-11T13:46:33.117Z,5.40
2019-03-11T13:49:00.770Z,5.50
2019-03-11T13:51:28.431Z,5.50
2019-03-11T13:53:58.026Z,5.40
2019-03-11T13:56:25.666Z,5.50
2019-03-11T13:58:53.298Z,5.30
2019-03-11T14:01:21.416Z,5.30
2019-03-11T14:03:50.319Z,5.30
2019-03-11T14:06:18.019Z,5.30
2019-03-11T14:08:45.664Z,5.00
2019-03-11T14:11:13.302Z,4.90
2019-03-11T14:13:44.139Z,5.20
2019-03-11T14:16:13.160Z,5.20
2019-03-11T14:18:40.806Z,5.30
2019-03-11T14:21:08.437Z,5.10
2019-03-11T14:23:44.104Z,5.20
2019-03-11T14:26:11.718Z,5.30
2019-03-11T14:28:39.365Z,5.60
2019-03-11T14:31:06.994Z,5.80
2019-03-11T14:33:39.663Z,5.80
2019-03-11T14:36:07.282Z,6.20
2019-03-11T14:38:34.926Z,7.00
2019-03-11T14:41:02.571Z,6.80
2019-03-11T14:43:30.207Z,7.10
2019-03-11T14:45:57.842Z,6.90
2019-03-11T14:48:25.488Z,6.70
2019-03-11T14:50:54.973Z,6.60
2019-03-11T14:53:22.488Z,6.40
2019-03-11T14:55:50.122Z,6.20
2019-03-11T14:58:25.643Z,5.90
2019-03-11T15:00:47.118Z,5.70
2019-03-11T15:03:15.703Z,5.60
2019-03-11T15:05:43.332Z,5.40
2019-03-11T15:10:40.020Z,5.10
2019-03-11T15:13:09.618Z,5.00
2019-03-11T15:15:37.241Z,4.80
2019-03-11T15:18:04.875Z,4.40
2019-03-11T15:20:32.527Z,4.20
2019-03-11T15:23:07.636Z,3.90
2019-03-11T15:25:29.530Z,3.70
2019-03-11T15:27:57.162Z,3.80
2019-03-11T15:30:25.074Z,3.90
2019-03-11T15:32:56.949Z,3.90
2019-03-11T15:35:24.590Z,3.90
2019-03-11T15:37:52.226Z,3.90
2019-03-11T15:40:19.865Z,4.00
2019-03-11T15:42:47.493Z,4.10
2019-03-11T15:45:18.345Z,4.20
2019-03-11T15:47:46.127Z,4.30
2019-03-11T15:50:15.321Z,4.50
2019-03-11T15:52:42.943Z,4.90
2019-03-11T15:55:11.891Z,4.60
2019-03-11T15:57:39.576Z,4.50
2019-03-11T16:00:08.755Z,4.40
2019-03-11T16:02:37.600Z,5.70
2019-03-11T16:05:05.479Z,6.10
2019-03-11T16:07:33.107Z,6.60
2019-03-11T16:10:00.749Z,6.20
2019-03-11T16:12:30.970Z,5.90
2019-03-11T16:14:58.619Z,5.50
2019-03-11T16:17:26.262Z,5.30
2019-03-11T16:19:53.909Z,5.00
2019-03-11T16:22:24.253Z,4.90
2019-03-11T16:24:50.901Z,4.80
2019-03-11T16:27:18.538Z,4.60
2019-03-11T16:29:46.181Z,4.70
2019-03-11T16:32:18.126Z,4.50
2019-03-11T16:34:45.747Z,4.50
2019-03-11T16:37:13.390Z,4.60
2019-03-11T16:39:41.018Z,4.70
2019-03-11T16:42:09.602Z,4.50
2019-03-11T16:44:37.230Z,4.10
2019-03-11T16:47:04.875Z,4.00
2019-03-11T16:49:32.495Z,3.80
2019-03-11T16:52:07.103Z,3.60
2019-03-11T16:54:36.268Z,3.50
2019-03-11T16:57:03.916Z,3.50
2019-03-11T16:59:31.534Z,3.40
2019-03-11T17:01:59.183Z,3.30
2019-03-11T17:04:26.818Z,3.30
2019-03-11T17:06:54.519Z,3.30
2019-03-11T17:09:22.155Z,3.20
2019-03-11T17:11:49.795Z,3.20
2019-03-11T17:14:17.421Z,3.10
2019-03-11T17:16:45.069Z,3.20
2019-03-11T17:19:12.691Z,3.20
2019-03-11T17:21:40.368Z,3.20
2019-03-11T17:24:08.954Z,3.30
2019-03-11T17:26:36.594Z,3.30
2019-03-11T17:29:04.295Z,3.20
2019-03-11T17:31:31.990Z,3.20
2019-03-11T17:33:59.653Z,3.30
2019-03-11T17:36:28.102Z,3.20
2019-03-11T17:38:55.742Z,3.20
2019-03-11T17:41:23.412Z,3.20
2019-03-11T17:43:51.132Z,3.40
2019-03-11T17:46:18.789Z,3.40
2019-03-11T17:48:46.431Z,3.40
2019-03-11T17:51:14.127Z,3.40
2019-03-11T17:53:41.766Z,3.40
2019-03-11T17:56:09.399Z,3.40
2019-03-11T17:58:37.046Z,3.30
2019-03-11T18:01:05.124Z,3.30
2019-03-11T18:03:32.767Z,3.30
2019-03-11T18:06:10.814Z,3.30
2019-03-11T18:08:29.750Z,3.30
2019-03-11T18:10:57.373Z,3.30
2019-03-11T18:13:25.020Z,3.30
2019-03-11T18:15:52.651Z,3.30
2019-03-11T18:18:20.401Z,3.30
2019-03-11T18:20:48.069Z,3.30
2019-03-11T18:23:15.710Z,3.40
2019-03-11T18:25:43.343Z,3.50
2019-03-11T18:28:10.977Z,3.50
2019-03-11T18:30:38.624Z,3.50
2019-03-11T18:33:06.266Z,3.50
2019-03-11T18:35:34.246Z,3.50
2019-03-11T18:38:04.602Z,3.60
2019-03-11T18:40:31.378Z,3.60
2019-03-11T18:42:59.015Z,3.60
2019-03-11T18:45:26.715Z,3.60
2019-03-11T18:47:54.350Z,3.50
2019-03-11T18:50:22.695Z,3.50
2019-03-11T18:52:51.410Z,3.40
2019-03-11T18:55:19.151Z,3.40
2019-03-11T18:57:46.809Z,3.40
2019-03-11T19:00:16.200Z,3.50
2019-03-11T19:02:43.848Z,3.40
2019-03-11T19:05:12.922Z,3.50
2019-03-11T19:07:40.619Z,3.40
2019-03-11T19:10:09.728Z,3.40
2019-03-11T19:12:37.354Z,3.50
2019-03-11T19:15:06.680Z,3.50
2019-03-11T19:17:34.322Z,3.40
2019-03-11T19:20:02.014Z,3.50
2019-03-11T19:22:29.670Z,3.50
2019-03-11T19:24:57.369Z,3.40
2019-03-11T19:27:25.089Z,3.40
2019-03-11T19:29:52.730Z,3.40
2019-03-11T19:32:20.346Z,3.50
2019-03-11T19:34:48.013Z,3.50
2019-03-11T19:37:15.631Z,3.60
2019-03-11T19:39:43.351Z,3.60
2019-03-11T19:42:11.103Z,3.60
2019-03-11T19:44:38.860Z,3.60
2019-03-11T19:47:06.491Z,3.60
2019-03-11T19:49:34.160Z,3.60
2019-03-11T19:52:01.843Z,3.50
2019-03-11T19:54:29.506Z,3.50
2019-03-11T19:56:57.238Z,3.60
2019-03-11T19:59:24.938Z,3.60
2019-03-11T20:01:52.641Z,3.80
2019-03-11T20:04:20.399Z,3.70
2019-03-11T20:06:48.071Z,3.80
2019-03-11T20:09:15.810Z,3.80
2019-03-11T20:11:43.562Z,3.90
2019-03-11T20:14:11.319Z,3.90
2019-03-11T20:16:38.947Z,3.90
2019-03-11T20:19:06.605Z,4.00
2019-03-11T20:21:34.320Z,3.90
2019-03-11T20:24:02.026Z,4.00
2019-03-11T20:26:29.683Z,4.00
2019-03-11T20:28:57.454Z,4.10
2019-03-11T20:31:25.170Z,4.10
2019-03-11T20:33:52.846Z,4.20
2019-03-11T20:36:21.493Z,4.10
2019-03-11T20:38:49.386Z,4.00
2019-03-11T20:41:17.026Z,3.90
2019-03-11T20:43:44.715Z,3.60
2019-03-11T20:46:12.336Z,3.40
2019-03-11T20:48:40.063Z,3.30
2019-03-11T20:51:07.703Z,3.10
2019-03-11T20:53:35.401Z,3.00
2019-03-11T20:56:03.078Z,2.80
2019-03-11T20:58:30.744Z,2.80
2019-03-11T21:00:58.381Z,2.80
2019-03-11T21:03:26.042Z,2.80
2019-03-11T21:05:55.526Z,2.80
2019-03-11T21:08:23.218Z,2.90
2019-03-11T21:10:50.910Z,2.90
2019-03-11T21:13:18.647Z,2.90
2019-03-11T21:15:46.342Z,2.90
2019-03-11T21:18:13.981Z,2.80
2019-03-11T21:20:41.641Z,2.80
2019-03-11T21:23:09.389Z,2.80
2019-03-11T21:25:37.096Z,2.70
2019-03-11T21:28:04.796Z,2.70
2019-03-11T21:30:32.452Z,2.80
2019-03-11T21:33:00.143Z,2.80
2019-03-11T21:35:27.881Z,2.90
2019-03-11T21:37:55.823Z,2.90
2019-03-11T21:40:23.994Z,2.90
2019-03-11T21:42:51.863Z,2.90
2019-03-11T21:45:19.649Z,2.90
2019-03-11T21:47:48.442Z,2.90
2019-03-11T21:50:23.156Z,2.90
2019-03-11T21:52:50.836Z,2.90
2019-03-11T21:55:18.580Z,3.00
2019-03-11T21:57:46.371Z,3.00
2019-03-11T22:00:15.605Z,3.00
2019-03-11T22:02:43.263Z,3.00
2019-03-11T22:05:10.969Z,3.00
2019-03-11T22:07:38.604Z,3.00
2019-03-11T22:10:07.810Z,3.10
2019-03-11T22:12:35.434Z,3.10
2019-03-11T22:15:03.342Z,3.10
2019-03-11T22:17:30.976Z,3.10
2019-03-11T22:19:58.607Z,3.10
2019-03-11T22:22:26.234Z,3.10
2019-03-11T22:24:53.878Z,3.10
2019-03-11T22:27:21.514Z,3.20
2019-03-11T22:29:49.156Z,3.10
2019-03-11T22:32:20.443Z,3.20
2019-03-11T22:34:48.086Z,3.20
2019-03-11T22:37:15.713Z,3.20
2019-03-11T22:39:43.354Z,3.20
2019-03-11T22:42:10.979Z,3.10
2019-03-11T22:44:38.623Z,3.10
2019-03-11T22:47:06.248Z,3.20
2019-03-11T22:49:33.886Z,3.20
2019-03-11T22:52:01.515Z,3.20
2019-03-11T22:54:29.138Z,3.20
2019-03-11T22:56:56.784Z,3.20
2019-03-11T22:59:24.418Z,3.20
2019-03-11T23:01:52.071Z,3.30
2019-03-11T23:04:19.710Z,3.30
2019-03-11T23:06:47.347Z,3.30
2019-03-11T23:09:14.994Z,3.40
2019-03-11T23:11:42.634Z,3.40
2019-03-11T23:14:10.266Z,3.40
2019-03-11T23:16:37.911Z,3.40
2019-03-11T23:19:05.560Z,3.40
2019-03-11T23:21:33.195Z,3.40
2019-03-11T23:24:00.824Z,3.40
2019-03-11T23:26:28.475Z,3.40
2019-03-11T23:28:56.094Z,3.40
2019-03-11T23:31:23.739Z,3.40
2019-03-11T23:33:52.266Z,3.40
2019-03-11T23:36:19.899Z,3.40
2019-03-11T23:38:47.527Z,3.40
2019-03-11T23:41:15.174Z,3.40
2019-03-11T23:43:42.798Z,3.40
2019-03-11T23:46:10.434Z,3.40
2019-03-11T23:48:38.066Z,3.40
2019-03-11T23:51:05.708Z,3.40
2019-03-11T23:53:33.330Z,3.40
2019-03-11T23:56:00.991Z,3.40
2019-03-11T23:58:28.625Z,3.40
